Sunday, March 29, 2015
07:24 UTC
  |  Log In   |  Register Free
Airport Search:

Indiana County/Jimmy Stewart Fld/ Airport
(KIDI)

Indiana County/Jimmy Stewart Fld/ Airport Diagram
No Airport Diagram Available

FAA data valid effective March 05, 2015 - April 30, 2015 (unless otherwise noted).

 
 
 
 
 
 
 
 
 
 
 
 
 
 

Current Aviation Weather for Indiana County/Jimmy Stewart Fld/ Airport (KIDI)

The most recent METAR observation for KIDI was updated at: 1410
METAR Summary (Translated METAR)
KIDI
251355Z AUTO 14015KT 9SM FEW060 SCT075 03/00 A3014 RMK A01
KJST
251354Z AUTO 15010G17KT 8SM UP BKN055 OVC095 M01/M03 A3014 RMK AO2 SLP229 P0000 T10061028
(22.7 nm SE from KIDI)
KLBE
251350Z 11006KT 15SM BKN075 BKN085 05/01 A3011
(25.5 nm SW from KIDI)
TAF Summary (Translated TAF)
KJST
(22.7 nm SE from KIDI)
251127Z 2512/2612 16008KT P6SM -FZRA OVC050 FM251400 17010G20KT 6SM -RA OVC025 WS020/22040KT FM251800 20010G15KT 5SM -RA OVC015 WS020/22035KT FM260000 21005KT 4SM BR OVC007
KLBE
(25.5 nm SW from KIDI)
251120Z 2512/2612 13010G18KT P6SM -SHRA OVC040 WS020/19035KT FM251800 18012G22KT P6SM BKN025 FM252200 21012KT P6SM SCT025
  Airport Weather Conditions for KIDI

 Current Weather at IDI
14° F
Fair
North winds at 0.0 mph
IDI NOAA Radar

Pressure: 30.31 in
Humidity: 79%
Wind: Calm
Dew Point: 8.6°F
Visibility: 10.00 mi


Airport Weather Forecast for KIDI

Translated METAR and TAF for KIDI
Translated METAR for KIDI (0723 UTC 29 March 2015)
found at http://aviationweather.gov/adds/metars/
 
METAR text: KIDI 290715Z AUTO 00000KT 10SM CLR M10/M13 A3031 RMK A01
Conditions at: KIDI (INDIANA/STEWART , PA, US) observed 0715 UTC 29 March 2015
Temperature: -10.0°C (14°F)
Dewpoint: -13.0°C (9°F) [RH = 79%]
Pressure (altimeter): 30.31 inches Hg (1026.5 mb)
Winds: calm
Visibility: 10 or more miles (16+ km)
Ceiling: at least 12,000 feet AGL
Clouds: sky clear below 12,000 feet AGL
Weather: automated observation with no human augmentation;
there may or may not be significant weather present at this time
Translated TAF for KIDI

There is no translated TAF available for this airport

Find All Airport Services Find A Hotel Find A Rental Car Find A Golf Course Find A Restaurant $100 Hamburger



FBO's on the Field
FBO Company Facility Photos Services Transportation Aviation Fuel Prices: Prices include tax
Catering Weather Repair Courtesy Rental Type 100LL JetA JetA+ MOGAS 8087
 
Indiana County Jimmy Stewart Airport

Currently rated 5 by 1 person
FS:Phillips 66
Last Updated: Mar-06
Login to update fuel prices
SS:
Contact Indiana County Jimmy Stewart AirportMore FBO Information
 
Add another FBO Facility Photos Catering Weather Repair Courtesy Rental Type 100LL JetA JetA+ MOGAS 8087
Services Transportation Aviation Fuel Prices: Prices include tax


model-print
model-print
model-print
model-print